Time;durP1;ratioP1;P1;durP2;ratioP2;P2;SDS_P1;SDS_P2;PMS_P1;PMS_P2;Temp;Humidity;BMP_temperature;BMP_pressure;BME280_temperature;BME280_humidity;BME280_pressure;Samples;Min_cycle;Max_cycle;Signal;HPM_P1;HPM_P2
2021/01/18 03:45:11;;;;;;;18.92;9.40;;;1.80;54.70;;;;;;5868884;24;20084;31
2021/01/18 03:47:37;;;;;;;20.83;9.88;;;1.80;54.80;;;;;;4830352;29;20050;-72
2021/01/18 03:50:03;;;;;;;17.45;8.90;;;1.90;54.80;;;;;;4828912;29;20033;-72
2021/01/18 03:52:28;;;;;;;24.08;10.13;;;1.90;54.60;;;;;;4827793;29;20034;-72
2021/01/18 03:54:54;;;;;;;19.77;9.73;;;1.90;54.40;;;;;;4833883;29;20030;-72
2021/01/18 03:57:20;;;;;;;20.73;11.13;;;1.90;54.40;;;;;;4834091;29;20083;-72
2021/01/18 03:59:45;;;;;;;17.67;9.05;;;2.00;54.60;;;;;;4849331;29;20031;-72
2021/01/18 04:02:13;;;;;;;21.33;10.25;;;2.00;54.60;;;;;;4833760;29;20213;-72
2021/01/18 04:04:38;;;;;;;20.65;10.05;;;1.80;54.20;;;;;;4834844;29;20034;-72
2021/01/18 04:07:08;;;;;;;18.05;9.27;;;1.80;54.70;;;;;;4848990;29;20083;-72
2021/01/18 04:09:34;;;;;;;17.83;9.77;;;1.70;54.20;;;;;;4834865;29;20381;-72
2021/01/18 04:12:03;;;;;;;16.90;9.93;;;1.80;54.40;;;;;;4834374;29;20093;-72
2021/01/18 04:14:29;;;;;;;23.80;10.30;;;1.70;54.40;;;;;;4833638;29;20058;-72
2021/01/18 04:16:54;;;;;;;21.05;10.35;;;1.80;54.60;;;;;;4834660;29;20033;-72
2021/01/18 04:19:20;;;;;;;18.52;10.13;;;1.80;54.70;;;;;;4834830;29;20026;-72
2021/01/18 04:21:46;;;;;;;21.50;11.20;;;1.90;54.30;;;;;;4818392;29;20022;-72
2021/01/18 04:24:12;;;;;;;18.67;9.68;;;1.90;54.40;;;;;;4834516;29;20034;-72
2021/01/18 04:26:38;;;;;;;17.30;9.93;;;1.90;54.10;;;;;;4833769;29;20030;-72
2021/01/18 04:29:04;;;;;;;17.45;9.95;;;1.90;54.00;;;;;;4867237;29;20093;-72
2021/01/18 04:31:30;;;;;;;18.33;9.55;;;2.00;53.90;;;;;;4852484;29;20053;-72
2021/01/18 04:33:56;;;;;;;19.75;10.80;;;1.80;53.80;;;;;;4852792;29;20026;-72
2021/01/18 04:36:21;;;;;;;23.40;10.20;;;1.90;54.20;;;;;;4852726;29;20309;-72
2021/01/18 04:38:47;;;;;;;25.00;11.00;;;2.00;54.30;;;;;;4852521;29;20033;-72
2021/01/18 04:41:13;;;;;;;29.05;12.82;;;2.10;54.30;;;;;;4851442;29;20026;-72
2021/01/18 04:43:39;;;;;;;23.35;10.75;;;2.10;54.10;;;;;;4852422;29;20025;-72
2021/01/18 04:46:12;;;;;;;24.05;10.57;;;2.10;54.20;;;;;;4845812;29;20047;-72
2021/01/18 04:48:38;;;;;;;23.42;11.45;;;2.20;54.20;;;;;;4848562;29;20030;-72
2021/01/18 04:51:14;;;;;;;25.30;12.15;;;2.20;53.80;;;;;;4833305;29;20040;-72
2021/01/18 04:53:48;;;;;;;28.92;15.07;;;2.20;53.80;;;;;;4833326;29;20039;-72
2021/01/18 04:56:35;;;;;;;22.95;12.23;;;2.30;53.90;;;;;;4833410;29;20038;-72
2021/01/18 04:59:03;;;;;;;28.48;12.15;;;2.30;53.60;;;;;;4848421;29;20035;-72
2021/01/18 05:01:30;;;;;;;25.70;11.77;;;2.30;53.60;;;;;;4848000;29;20067;-72
2021/01/18 05:04:03;;;;;;;22.27;11.70;;;2.30;53.90;;;;;;4833084;29;20122;-72
2021/01/18 05:06:45;;;;;;;24.25;11.82;;;2.20;53.60;;;;;;4848241;29;20360;-72
2021/01/18 05:09:27;;;;;;;23.75;11.27;;;2.20;53.60;;;;;;4833008;29;20045;-72
2021/01/18 05:11:54;;;;;;;29.52;11.43;;;2.20;53.90;;;;;;4817620;29;20042;-72
2021/01/18 05:14:20;;;;;;;26.05;11.55;;;2.20;53.80;;;;;;4848187;29;20042;-72
2021/01/18 05:16:54;;;;;;;23.85;12.52;;;2.20;54.00;;;;;;4832777;29;20046;-72
2021/01/18 05:19:22;;;;;;;57.47;13.68;;;2.20;53.90;;;;;;4833073;29;20030;-72
2021/01/18 05:21:48;;;;;;;46.03;18.60;;;2.10;54.70;;;;;;4833912;29;20030;-74
2021/01/18 05:24:16;;;;;;;24.85;13.23;;;2.10;54.10;;;;;;4834244;29;20025;-72
2021/01/18 05:26:42;;;;;;;31.40;12.75;;;2.10;53.70;;;;;;4834982;29;20041;-72
2021/01/18 05:29:08;;;;;;;31.40;13.73;;;2.00;54.70;;;;;;4851056;29;20045;-72
2021/01/18 05:31:39;;;;;;;35.35;13.18;;;2.10;54.20;;;;;;4851940;29;20040;-72
2021/01/18 05:34:12;;;;;;;29.45;12.70;;;2.20;54.00;;;;;;4851110;29;20314;-72
2021/01/18 05:36:44;;;;;;;36.67;17.20;;;2.20;54.10;;;;;;4851094;29;20053;-72
2021/01/18 05:39:32;;;;;;;40.58;16.17;;;2.10;54.00;;;;;;4870851;29;20029;-72
2021/01/18 05:41:59;;;;;;;23.25;12.30;;;2.20;54.20;;;;;;4872158;29;20100;-72
2021/01/18 05:44:35;;;;;;;;;;;2.30;53.80;;;;;;4858505;29;20030;-72
2021/01/18 05:47:08;;;;;;;30.20;14.00;;;2.20;53.70;;;;;;4844248;29;19916;-73
2021/01/18 05:49:50;;;;;;;30.95;12.23;;;2.20;54.10;;;;;;4823499;29;20057;-73
2021/01/18 05:52:30;;;;;;;28.50;11.80;;;2.30;54.10;;;;;;4839541;29;20041;-73
2021/01/18 05:55:18;;;;;;;32.78;12.82;;;2.20;54.30;;;;;;4823348;29;20030;-73
2021/01/18 05:57:52;;;;;;;25.00;11.48;;;2.30;54.60;;;;;;4853873;29;20053;-72
2021/01/18 06:00:34;;;;;;;26.63;12.68;;;2.40;54.20;;;;;;4836673;29;20026;-72
2021/01/18 06:03:05;;;;;;;29.10;13.48;;;2.40;54.40;;;;;;4825522;29;20030;-72
2021/01/18 06:05:41;;;;;;;24.85;12.98;;;2.50;54.20;;;;;;4828844;29;20034;-72
2021/01/18 06:08:19;;;;;;;34.45;13.07;;;2.50;53.90;;;;;;4840428;29;20113;-72
2021/01/18 06:10:47;;;;;;;26.27;12.07;;;2.60;54.10;;;;;;4821291;29;20261;-72
2021/01/18 06:13:26;;;;;;;44.70;13.68;;;2.50;54.20;;;;;;4820235;29;20083;-72
2021/01/18 06:16:01;;;;;;;28.13;12.63;;;2.50;54.30;;;;;;4824658;29;20045;-72
2021/01/18 06:18:29;;;;;;;32.15;12.77;;;2.60;54.10;;;;;;4831065;29;20102;-72
2021/01/18 06:21:00;;;;;;;33.88;14.32;;;2.60;54.10;;;;;;4839292;29;20033;-72
2021/01/18 06:23:26;;;;;;;29.35;12.35;;;2.60;54.30;;;;;;4830799;29;20098;-72
2021/01/18 06:25:54;;;;;;;27.20;13.32;;;2.70;54.30;;;;;;4837265;29;20376;-72
2021/01/18 06:28:31;;;;;;;28.67;13.15;;;2.70;54.80;;;;;;4851730;29;20034;-72
2021/01/18 06:31:02;;;;;;;31.35;13.13;;;2.70;53.90;;;;;;4857534;29;20044;-73
2021/01/18 06:33:45;;;;;;;28.30;13.70;;;2.70;54.10;;;;;;4856471;29;20105;-72
2021/01/18 06:36:13;;;;;;;31.23;12.98;;;2.80;54.20;;;;;;4871827;29;20263;-72
2021/01/18 06:38:41;;;;;;;31.55;12.20;;;2.80;53.80;;;;;;4836294;29;20035;-72
2021/01/18 06:41:08;;;;;;;28.27;13.95;;;2.80;54.40;;;;;;4833409;29;20035;-73
2021/01/18 06:43:35;;;;;;;32.90;13.07;;;2.80;53.80;;;;;;4830211;29;20131;-72
2021/01/18 06:46:16;;;;;;;;;;;2.80;53.80;;;;;;4829760;29;20046;-73
2021/01/18 06:48:44;;;;;;;27.63;12.07;;;2.80;53.90;;;;;;4830144;29;19909;-73
2021/01/18 06:51:15;;;;;;;33.92;13.95;;;2.80;53.70;;;;;;4828322;29;20041;-72
2021/01/18 06:53:43;;;;;;;31.60;14.57;;;2.80;53.80;;;;;;4824659;29;20156;-72
2021/01/18 06:56:25;;;;;;;38.67;14.82;;;2.80;54.10;;;;;;4824785;29;20221;-73
2021/01/18 06:59:06;;;;;;;31.95;12.93;;;2.80;54.00;;;;;;4829776;29;20042;-72
2021/01/18 07:01:34;;;;;;;32.17;13.32;;;2.80;53.60;;;;;;4827221;29;20062;-73
2021/01/18 07:04:05;;;;;;;35.72;13.35;;;2.80;53.90;;;;;;4823988;29;20103;-72
2021/01/18 07:06:36;;;;;;;30.08;13.77;;;2.80;53.70;;;;;;4833098;29;20034;-73
2021/01/18 07:09:24;;;;;;;48.70;18.15;;;2.80;53.90;;;;;;4825660;29;20038;-73
2021/01/18 07:12:05;;;;;;;46.33;16.55;;;2.80;53.60;;;;;;4826704;29;20042;-72
2021/01/18 07:14:32;;;;;;;60.47;22.20;;;2.80;53.90;;;;;;4820358;29;20054;-72
2021/01/18 07:17:03;;;;;;;88.60;34.60;;;2.90;54.00;;;;;;4827745;29;20066;-72
2021/01/18 07:19:46;;;;;;;37.30;16.02;;;2.90;53.90;;;;;;4837655;29;20036;-72
2021/01/18 07:23:00;;;;;;;33.92;15.60;;;2.90;53.40;;;;;;4822663;29;20084;-72
2021/01/18 07:25:55;;;;;;;33.75;15.15;;;2.90;53.50;;;;;;4788845;30;20035;-73
2021/01/18 07:28:20;;;;;;;26.25;12.13;;;2.90;53.60;;;;;;4786674;29;20039;-73
2021/01/18 07:30:49;;;;;;;31.75;12.82;;;2.90;53.50;;;;;;4796395;30;20193;-73
2021/01/18 07:33:17;;;;;;;31.23;11.75;;;2.90;53.40;;;;;;4787649;30;20050;-73
2021/01/18 07:35:45;;;;;;;31.40;12.55;;;3.00;53.50;;;;;;4772979;30;20116;-73
2021/01/18 07:38:22;;;;;;;27.25;12.70;;;3.00;53.40;;;;;;4786897;30;20019;-73
2021/01/18 07:41:06;;;;;;;26.90;12.95;;;3.10;53.10;;;;;;4789156;30;20265;-72
2021/01/18 07:43:40;;;;;;;31.95;13.15;;;3.10;53.30;;;;;;4785978;30;20040;-73
2021/01/18 07:46:24;;;;;;;37.78;13.48;;;3.20;53.40;;;;;;4785294;30;20059;-73
2021/01/18 07:48:53;;;;;;;32.17;12.43;;;3.20;52.90;;;;;;4782491;30;20061;-73
2021/01/18 07:51:20;;;;;;;31.05;13.60;;;3.20;52.90;;;;;;4767139;30;20039;-73
2021/01/18 07:53:46;;;;;;;;;;;3.20;52.80;;;;;;4797519;30;20299;-73
2021/01/18 07:56:22;;;;;;;29.50;12.70;;;3.20;53.00;;;;;;4782047;30;19913;-73
2021/01/18 07:58:57;;;;;;;27.45;12.30;;;3.20;53.00;;;;;;4782028;30;20084;-73
2021/01/18 08:01:28;;;;;;;23.50;11.13;;;3.30;52.70;;;;;;4793569;29;20079;-73
2021/01/18 08:04:14;;;;;;;24.17;11.93;;;3.20;51.90;;;;;;4842221;29;20074;-74
2021/01/18 08:07:05;;;;;;;24.47;12.03;;;3.20;52.40;;;;;;4818549;29;20035;-73
2021/01/18 08:09:33;;;;;;;24.58;10.93;;;3.20;52.20;;;;;;4834784;29;20307;-73
2021/01/18 08:12:34;;;;;;;23.75;11.07;;;3.20;52.50;;;;;;4833810;29;20034;-73
2021/01/18 08:15:09;;;;;;;29.13;13.05;;;3.20;52.40;;;;;;4834553;29;20030;-73
2021/01/18 08:17:36;;;;;;;27.23;12.45;;;3.20;52.60;;;;;;4833606;29;20102;-73
2021/01/18 08:20:13;;;;;;;24.50;12.05;;;3.30;53.20;;;;;;4834770;29;20278;-73
2021/01/18 08:22:40;;;;;;;33.45;12.82;;;3.30;52.80;;;;;;4848544;29;20213;-73
2021/01/18 08:25:07;;;;;;;26.50;13.32;;;3.40;52.80;;;;;;4834746;29;20058;-73
2021/01/18 08:27:38;;;;;;;;;;;3.40;52.50;;;;;;4835104;29;20034;-73
2021/01/18 08:30:26;;;;;;;31.40;12.00;;;3.50;52.50;;;;;;4848139;29;19953;-74
2021/01/18 08:33:04;;;;;;;32.88;12.68;;;3.50;52.50;;;;;;4830440;29;20066;-73
2021/01/18 08:35:44;;;;;;;28.02;13.15;;;3.40;52.40;;;;;;4830320;29;20042;-73
2021/01/18 08:38:20;;;;;;;29.05;13.38;;;3.40;52.50;;;;;;4816080;29;20031;-73
2021/01/18 08:40:49;;;;;;;27.97;13.80;;;3.40;52.60;;;;;;4830302;29;20103;-73
2021/01/18 08:43:16;;;;;;;25.50;14.27;;;3.50;52.60;;;;;;4816437;29;20031;-73
2021/01/18 08:45:50;;;;;;;29.88;14.25;;;3.60;52.50;;;;;;4823185;29;20078;-73
2021/01/18 08:48:20;;;;;;;34.60;12.25;;;3.70;52.50;;;;;;4839107;29;20429;-74
2021/01/18 08:50:55;;;;;;;28.45;14.45;;;3.80;52.40;;;;;;4831827;29;20026;-74
2021/01/18 08:53:40;;;;;;;28.27;13.77;;;3.80;51.90;;;;;;4829920;29;20088;-74
2021/01/18 08:56:06;;;;;;;51.42;14.68;;;3.70;51.60;;;;;;4829605;29;20064;-75
2021/01/18 08:58:35;;;;;;;32.78;13.40;;;3.60;52.00;;;;;;4814646;29;20046;-74
2021/01/18 09:01:01;;;;;;;37.42;15.07;;;3.60;52.50;;;;;;4829808;29;20027;-74
2021/01/18 09:03:27;;;;;;;31.25;13.57;;;3.70;52.70;;;;;;4830331;29;20164;-74
2021/01/18 09:05:55;;;;;;;29.23;13.35;;;3.70;52.60;;;;;;4845283;29;20071;-74
2021/01/18 09:08:25;;;;;;;30.90;13.82;;;3.70;52.60;;;;;;4844618;29;20113;-74
2021/01/18 09:11:01;;;;;;;26.55;13.27;;;3.70;52.40;;;;;;4829474;29;20045;-74
2021/01/18 09:13:29;;;;;;;33.78;13.93;;;3.70;52.10;;;;;;4815040;29;20226;-73
2021/01/18 09:15:57;;;;;;;29.30;14.30;;;3.70;52.20;;;;;;4820109;29;20073;-74
2021/01/18 09:18:25;;;;;;;29.55;13.77;;;3.80;52.60;;;;;;4833317;29;20048;-74
2021/01/18 09:20:53;;;;;;;37.17;15.63;;;3.80;52.30;;;;;;4833845;29;20031;-74
2021/01/18 09:23:19;;;;;;;30.40;15.90;;;3.90;52.20;;;;;;4834012;29;20026;-74
2021/01/18 09:25:45;;;;;;;36.17;17.10;;;3.90;52.30;;;;;;4817695;29;20459;-74
2021/01/18 09:28:14;;;;;;;42.50;15.32;;;3.80;52.40;;;;;;4860113;29;20078;-74
2021/01/18 09:30:42;;;;;;;39.30;16.65;;;3.90;52.70;;;;;;4850691;29;20086;-74
2021/01/18 09:33:12;;;;;;;46.13;21.10;;;3.90;52.90;;;;;;4866098;29;20336;-74
2021/01/18 09:35:42;;;;;;;52.60;18.80;;;3.70;53.40;;;;;;4842751;29;20069;-73
2021/01/18 09:38:10;;;;;;;40.80;16.27;;;3.70;54.20;;;;;;4825914;29;20030;-72
2021/01/18 09:40:40;;;;;;;39.35;16.35;;;3.60;54.90;;;;;;4832159;29;20038;-74
2021/01/18 09:43:07;;;;;;;32.33;16.42;;;3.50;54.70;;;;;;4832609;29;20329;-74
2021/01/18 09:45:35;;;;;;;42.58;15.93;;;3.40;55.50;;;;;;4830131;29;20030;-74
2021/01/18 09:48:06;;;;;;;37.88;16.25;;;3.30;55.20;;;;;;4846752;29;20058;-74
2021/01/18 09:50:33;;;;;;;37.75;15.65;;;3.50;55.70;;;;;;4847588;29;20325;-74
2021/01/18 09:52:59;;;;;;;;;;;3.50;56.10;;;;;;4829773;29;20256;-74
2021/01/18 09:55:27;;;;;;;36.28;15.88;;;3.50;56.50;;;;;;4825982;29;20088;-74
2021/01/18 09:58:08;;;;;;;40.55;16.67;;;3.60;56.50;;;;;;4831811;29;20112;-74
2021/01/18 10:00:36;;;;;;;32.65;16.48;;;3.50;57.30;;;;;;4833240;29;20329;-75
2021/01/18 10:03:03;;;;;;;35.00;16.98;;;3.50;57.80;;;;;;4817190;29;20032;-75
2021/01/18 10:05:29;;;;;;;;;;;3.50;58.90;;;;;;4832875;29;20090;-75
2021/01/18 10:07:56;;;;;;;46.73;17.00;;;3.30;60.50;;;;;;4841048;29;19954;-75
2021/01/18 10:10:22;;;;;;;34.08;16.90;;;3.10;61.30;;;;;;4814774;29;20060;-76
2021/01/18 10:12:54;;;;;;;34.80;17.83;;;3.10;61.80;;;;;;4828864;29;20087;-75
2021/01/18 10:15:29;;;;;;;39.00;17.20;;;3.10;62.20;;;;;;4844818;29;20038;-74
2021/01/18 10:17:55;;;;;;;38.88;18.77;;;3.00;63.30;;;;;;4847181;29;20053;-74
2021/01/18 10:20:25;;;;;;;43.72;17.58;;;2.80;63.80;;;;;;4835588;29;20043;-74
2021/01/18 10:22:51;;;;;;;34.90;17.63;;;2.80;64.30;;;;;;4825798;29;20022;-74
2021/01/18 10:25:17;;;;;;;36.20;17.80;;;2.70;64.40;;;;;;4834336;29;20132;-75
2021/01/18 10:27:51;;;;;;;39.20;17.93;;;2.80;64.40;;;;;;4838460;29;20117;-74
2021/01/18 10:30:20;;;;;;;43.85;19.35;;;2.80;64.10;;;;;;4835332;29;20318;-74
2021/01/18 10:32:51;;;;;;;37.92;17.90;;;2.90;64.10;;;;;;4835084;29;20030;-74
2021/01/18 10:35:20;;;;;;;38.08;18.60;;;2.80;64.40;;;;;;4833242;29;20034;-74
2021/01/18 10:37:46;;;;;;;37.65;18.40;;;2.80;64.50;;;;;;4820950;29;20022;-74
2021/01/18 10:40:13;;;;;;;44.65;18.75;;;2.90;64.50;;;;;;4825970;29;20084;-73
2021/01/18 10:42:53;;;;;;;35.05;18.30;;;3.00;63.90;;;;;;4833276;29;20071;-73
2021/01/18 10:45:24;;;;;;;43.38;18.70;;;3.10;63.80;;;;;;4825382;29;20026;-73
2021/01/18 10:48:01;;;;;;;38.47;18.52;;;3.10;64.00;;;;;;4829485;29;20094;-73
2021/01/18 10:50:29;;;;;;;42.58;18.35;;;3.10;63.90;;;;;;4833996;29;20044;-73
2021/01/18 10:53:11;;;;;;;38.95;19.02;;;3.20;63.90;;;;;;4821096;29;20099;-73
2021/01/18 10:55:37;;;;;;;43.58;19.63;;;3.30;64.30;;;;;;4823649;29;20057;-73
2021/01/18 10:58:06;;;;;;;58.33;20.92;;;3.30;64.00;;;;;;4826817;29;20057;-73
2021/01/18 11:00:33;;;;;;;38.42;20.85;;;3.30;64.00;;;;;;4820421;29;20034;-74
2021/01/18 11:02:59;;;;;;;;;;;3.40;63.80;;;;;;4845648;29;20038;-74
2021/01/18 11:05:43;;;;;;;37.07;18.60;;;3.50;63.50;;;;;;4827417;29;19916;-73
2021/01/18 11:08:10;;;;;;;38.45;18.77;;;3.40;63.30;;;;;;4831274;29;20042;-74
2021/01/18 11:10:39;;;;;;;38.22;18.15;;;3.50;63.60;;;;;;4818968;29;20090;-72
2021/01/18 11:13:10;;;;;;;42.20;19.52;;;3.40;63.50;;;;;;4839090;29;20118;-73
2021/01/18 11:15:42;;;;;;;41.60;20.15;;;3.50;63.80;;;;;;4841327;29;20033;-73
2021/01/18 11:18:10;;;;;;;52.00;24.35;;;3.60;63.60;;;;;;4832746;29;20037;-72
2021/01/18 11:20:37;;;;;;;42.30;20.25;;;3.50;64.10;;;;;;4834351;29;20105;-74
2021/01/18 11:23:09;;;;;;;46.60;20.08;;;3.60;64.10;;;;;;4834700;29;20035;-74
2021/01/18 11:25:36;;;;;;;64.10;26.85;;;3.60;64.10;;;;;;4834538;29;20041;-75
2021/01/18 11:28:13;;;;;;;41.92;20.52;;;3.70;63.80;;;;;;4844166;29;20404;-75
2021/01/18 11:30:40;;;;;;;42.17;20.48;;;3.60;63.90;;;;;;4828839;29;20034;-74
2021/01/18 11:33:09;;;;;;;56.17;25.02;;;3.70;63.60;;;;;;4828778;29;20319;-74
2021/01/18 11:35:35;;;;;;;41.10;20.17;;;3.70;63.50;;;;;;4828958;29;20050;-75
2021/01/18 11:38:01;;;;;;;41.53;21.67;;;3.70;63.60;;;;;;4826981;29;20076;-75
2021/01/18 11:40:27;;;;;;;44.30;19.00;;;3.70;63.30;;;;;;4827331;29;20030;-75
2021/01/18 11:42:59;;;;;;;40.60;20.50;;;3.70;63.40;;;;;;4826628;29;20393;-75
2021/01/18 11:45:26;;;;;;;43.67;20.55;;;3.50;63.70;;;;;;4839450;29;20030;-75
2021/01/18 11:47:51;;;;;;;47.28;20.92;;;3.40;64.20;;;;;;4841105;29;20338;-74
2021/01/18 11:50:17;;;;;;;53.28;22.23;;;3.30;64.60;;;;;;4840165;29;20030;-74
2021/01/18 11:52:45;;;;;;;50.70;25.35;;;3.40;65.00;;;;;;4826464;29;20042;-73
2021/01/18 11:55:15;;;;;;;45.78;21.33;;;3.40;64.80;;;;;;4822717;29;20034;-73
2021/01/18 11:57:46;;;;;;;45.78;21.38;;;3.40;64.80;;;;;;4833259;29;20373;-74
2021/01/18 12:00:14;;;;;;;52.65;21.45;;;3.30;65.10;;;;;;4822863;29;20343;-74
2021/01/18 12:02:40;;;;;;;40.17;21.33;;;3.30;65.10;;;;;;4826707;29;20087;-73
2021/01/18 12:05:07;;;;;;;44.42;21.15;;;3.30;65.30;;;;;;4822354;29;20030;-73
2021/01/18 12:07:33;;;;;;;57.33;23.15;;;3.40;65.20;;;;;;4823753;29;20115;-72
2021/01/18 12:09:59;;;;;;;51.20;23.60;;;3.40;65.30;;;;;;4829707;29;20083;-74
2021/01/18 12:12:25;;;;;;;44.03;21.53;;;3.40;65.00;;;;;;4831055;29;20145;-74
2021/01/18 12:14:51;;;;;;;49.00;22.15;;;3.50;65.10;;;;;;4834831;29;20322;-74
2021/01/18 12:17:17;;;;;;;51.92;22.65;;;3.40;65.50;;;;;;4832271;29;20030;-74
2021/01/18 12:19:42;;;;;;;76.63;30.58;;;3.50;65.80;;;;;;4827868;29;20018;-73
2021/01/18 12:22:09;;;;;;;45.55;22.42;;;3.60;65.50;;;;;;4821871;29;20030;-73
2021/01/18 12:24:34;;;;;;;46.43;22.33;;;3.60;65.30;;;;;;4839466;29;20034;-75
2021/01/18 12:27:00;;;;;;;50.35;21.63;;;3.70;65.40;;;;;;4827228;29;20082;-74
2021/01/18 12:29:26;;;;;;;46.92;21.80;;;3.70;65.40;;;;;;4822339;29;20055;-74
2021/01/18 12:31:52;;;;;;;41.38;20.75;;;3.70;65.00;;;;;;4821773;29;20034;-74
2021/01/18 12:34:18;;;;;;;42.03;21.80;;;3.60;65.00;;;;;;4836056;29;20035;-74
2021/01/18 12:36:53;;;;;;;44.45;20.38;;;3.70;65.20;;;;;;4822959;29;20292;-73
2021/01/18 12:39:19;;;;;;;48.63;22.08;;;3.70;65.30;;;;;;4829309;29;20022;-73
2021/01/18 12:41:45;;;;;;;45.08;21.05;;;3.80;65.10;;;;;;4825747;29;20034;-73
2021/01/18 12:44:10;;;;;;;44.25;22.17;;;3.70;64.80;;;;;;4832442;29;20079;-73
2021/01/18 12:46:36;;;;;;;41.28;21.95;;;3.70;66.00;;;;;;4848138;29;20078;-73
2021/01/18 12:49:02;;;;;;;49.15;24.08;;;3.70;65.30;;;;;;4835740;29;20030;-73
2021/01/18 12:51:28;;;;;;;49.85;25.38;;;3.70;64.80;;;;;;4826481;29;20038;-73
2021/01/18 12:53:53;;;;;;;105.55;44.25;;;3.70;65.10;;;;;;4829909;29;20030;-73
2021/01/18 12:56:24;;;;;;;100.35;40.85;;;3.70;64.90;;;;;;4824805;29;20072;-74
2021/01/18 12:58:49;;;;;;;49.38;25.83;;;3.70;64.90;;;;;;4835961;29;20027;-74
2021/01/18 13:01:15;;;;;;;46.78;22.58;;;3.70;64.70;;;;;;4816874;29;20074;-74
2021/01/18 13:03:43;;;;;;;45.08;23.42;;;3.80;64.70;;;;;;4827429;29;20018;-74
2021/01/18 13:06:09;;;;;;;44.97;22.55;;;3.80;64.80;;;;;;4831034;29;20030;-74
2021/01/18 13:08:35;;;;;;;48.40;22.63;;;3.80;65.50;;;;;;4834393;29;20031;-74
2021/01/18 13:11:04;;;;;;;46.65;23.10;;;3.90;64.70;;;;;;4822356;29;20038;-74
2021/01/18 13:13:30;;;;;;;51.85;23.40;;;3.90;64.50;;;;;;4826258;29;20103;-73
2021/01/18 13:15:57;;;;;;;46.10;22.90;;;3.90;64.60;;;;;;4839985;29;20041;-74
2021/01/18 13:18:22;;;;;;;43.83;22.58;;;4.00;64.50;;;;;;4837165;29;20042;-73
2021/01/18 13:20:48;;;;;;;49.50;23.85;;;3.90;64.30;;;;;;4825035;29;20038;-75
2021/01/18 13:23:14;;;;;;;52.78;24.23;;;3.90;64.60;;;;;;4828914;29;20060;-74
2021/01/18 13:25:42;;;;;;;49.63;24.45;;;3.90;64.60;;;;;;4837207;29;20353;-74
2021/01/18 13:28:08;;;;;;;57.72;25.30;;;3.90;64.80;;;;;;4836920;29;20030;-75
2021/01/18 13:30:34;;;;;;;57.13;26.75;;;3.80;64.90;;;;;;4832342;29;20110;-75
2021/01/18 13:33:00;;;;;;;58.05;24.98;;;3.80;65.40;;;;;;4832164;29;20091;-73
2021/01/18 13:35:26;;;;;;;50.20;25.95;;;3.70;65.50;;;;;;4833149;29;20030;-74
2021/01/18 13:37:54;;;;;;;54.13;25.52;;;3.80;65.80;;;;;;4832941;29;20030;-75
2021/01/18 13:40:20;;;;;;;52.92;25.45;;;3.80;65.70;;;;;;4831955;29;20318;-75
2021/01/18 13:42:46;;;;;;;48.63;24.25;;;3.80;65.80;;;;;;4831408;29;20026;-75
2021/01/18 13:45:12;;;;;;;49.85;24.13;;;3.90;65.80;;;;;;4825776;29;20172;-75
2021/01/18 13:47:42;;;;;;;51.15;25.88;;;3.80;66.00;;;;;;4846992;29;20069;-75
2021/01/18 13:50:09;;;;;;;53.70;25.55;;;3.80;66.30;;;;;;4832316;29;20103;-75
2021/01/18 13:52:35;;;;;;;;;;;3.80;66.00;;;;;;4833277;29;20046;-75
2021/01/18 13:55:00;;;;;;;48.57;24.83;;;3.60;66.50;;;;;;4831470;29;19966;-75
2021/01/18 13:57:26;;;;;;;48.75;25.17;;;3.60;66.70;;;;;;4847041;29;20053;-75
2021/01/18 13:59:52;;;;;;;50.42;24.88;;;3.50;66.80;;;;;;4833561;29;20030;-75
2021/01/18 14:02:18;;;;;;;60.67;27.63;;;3.40;66.70;;;;;;4820229;29;20034;-75
2021/01/18 14:04:43;;;;;;;56.65;25.63;;;3.50;66.90;;;;;;4835327;29;20030;-75
2021/01/18 14:07:09;;;;;;;48.13;25.40;;;3.50;67.00;;;;;;4835182;29;20030;-76
2021/01/18 14:09:35;;;;;;;54.22;26.40;;;3.50;67.40;;;;;;4834974;29;20027;-75
2021/01/18 14:12:01;;;;;;;63.42;30.05;;;3.40;67.60;;;;;;4842193;29;20039;-75
2021/01/18 14:14:27;;;;;;;56.17;25.90;;;3.40;67.50;;;;;;4835499;29;20044;-75
2021/01/18 14:16:52;;;;;;;58.67;27.08;;;3.50;68.00;;;;;;4835652;29;20074;-75
2021/01/18 14:19:18;;;;;;;53.97;27.00;;;3.30;68.40;;;;;;4851004;29;20538;-75
2021/01/18 14:21:44;;;;;;;61.97;28.10;;;3.20;68.90;;;;;;4835570;29;20027;-75
2021/01/18 14:24:11;;;;;;;66.50;29.08;;;3.20;68.90;;;;;;4835787;29;20027;-74
2021/01/18 14:26:39;;;;;;;63.60;29.13;;;3.20;69.10;;;;;;4829133;29;20041;-75
2021/01/18 14:29:07;;;;;;;60.22;28.95;;;3.20;69.00;;;;;;4842948;29;20374;-74
2021/01/18 14:31:37;;;;;;;61.97;30.50;;;3.30;68.80;;;;;;4823981;29;20154;-74
2021/01/18 14:34:04;;;;;;;63.05;28.10;;;3.30;69.00;;;;;;4827393;29;20091;-74
2021/01/18 14:36:31;;;;;;;60.63;29.73;;;3.30;69.20;;;;;;4850473;29;20043;-74
2021/01/18 14:38:58;;;;;;;62.28;28.77;;;3.30;69.30;;;;;;4822172;29;20243;-74
2021/01/18 14:41:26;;;;;;;58.22;28.23;;;3.30;69.50;;;;;;4816926;29;20095;-75
2021/01/18 14:43:52;;;;;;;57.00;27.45;;;3.40;69.30;;;;;;4818110;29;20022;-74
2021/01/18 14:46:19;;;;;;;63.30;30.27;;;3.30;69.50;;;;;;4832520;29;20069;-74
2021/01/18 14:48:45;;;;;;;59.15;29.90;;;3.30;69.90;;;;;;4850189;29;20050;-74
2021/01/18 14:51:22;;;;;;;65.45;27.88;;;3.20;70.00;;;;;;4834995;29;20118;-74
2021/01/18 14:53:52;;;;;;;54.25;28.13;;;3.20;69.90;;;;;;4834875;29;20105;-74
2021/01/18 14:56:23;;;;;;;60.50;29.27;;;3.30;70.00;;;;;;4848697;29;20034;-73
2021/01/18 14:58:49;;;;;;;63.90;28.15;;;3.20;69.80;;;;;;4830852;29;20026;-74
2021/01/18 15:01:30;;;;;;;65.97;28.95;;;3.20;70.00;;;;;;4829884;29;20027;-75
2021/01/18 15:03:56;;;;;;;64.95;28.65;;;3.20;69.70;;;;;;4830808;29;20071;-75
2021/01/18 15:06:31;;;;;;;63.42;27.38;;;3.30;69.80;;;;;;4816819;29;20038;-74
2021/01/18 15:08:58;;;;;;;63.40;30.33;;;3.30;69.80;;;;;;4818079;29;20307;-75
2021/01/18 15:11:25;;;;;;;54.22;27.67;;;3.30;69.80;;;;;;4825336;29;20104;-76
2021/01/18 15:13:54;;;;;;;54.28;26.55;;;3.20;70.10;;;;;;4819740;29;20317;-75
2021/01/18 15:16:20;;;;;;;54.85;28.20;;;3.20;70.20;;;;;;4827594;29;20051;-76
2021/01/18 15:18:46;;;;;;;55.92;27.15;;;3.20;70.30;;;;;;4828789;29;20022;-75
2021/01/18 15:21:12;;;;;;;59.05;28.67;;;3.10;70.20;;;;;;4845795;29;20022;-76
2021/01/18 15:23:38;;;;;;;58.33;27.88;;;3.20;70.00;;;;;;4844368;29;20145;-76
2021/01/18 15:26:06;;;;;;;65.82;30.48;;;3.40;69.70;;;;;;4824232;29;20030;-76
2021/01/18 15:28:32;;;;;;;59.85;27.85;;;3.40;69.50;;;;;;4826909;29;20027;-75
2021/01/18 15:30:58;;;;;;;51.40;26.63;;;3.30;69.60;;;;;;4826225;29;20054;-76
2021/01/18 15:33:24;;;;;;;62.65;28.77;;;3.40;69.50;;;;;;4826997;29;20143;-75
2021/01/18 15:35:54;;;;;;;53.50;27.30;;;3.40;69.60;;;;;;4830047;29;20310;-75
2021/01/18 15:38:22;;;;;;;61.95;28.65;;;3.40;69.40;;;;;;4827509;29;20042;-75
2021/01/18 15:40:48;;;;;;;56.78;28.08;;;3.40;69.30;;;;;;4829570;29;20398;-75
2021/01/18 15:43:14;;;;;;;52.70;27.80;;;3.40;69.50;;;;;;4822874;29;20026;-75
2021/01/18 15:45:40;;;;;;;67.25;29.65;;;3.40;69.50;;;;;;4821671;29;20214;-75
2021/01/18 15:48:07;;;;;;;59.90;27.45;;;3.30;69.50;;;;;;4844039;29;20052;-76
2021/01/18 15:50:33;;;;;;;59.40;28.60;;;3.30;69.50;;;;;;4837085;29;20054;-75
2021/01/18 15:52:58;;;;;;;51.60;27.45;;;3.40;69.40;;;;;;4825220;29;20034;-75
2021/01/18 15:55:24;;;;;;;64.47;31.17;;;3.30;69.30;;;;;;4823517;29;20038;-74
2021/01/18 15:57:50;;;;;;;63.35;29.88;;;3.30;69.60;;;;;;4818488;29;20034;-75
2021/01/18 16:00:16;;;;;;;73.13;32.85;;;3.40;69.50;;;;;;4823850;29;20051;-75
2021/01/18 16:02:42;;;;;;;72.57;32.77;;;3.40;69.30;;;;;;4824728;29;20037;-75
2021/01/18 16:05:14;;;;;;;75.22;35.08;;;3.40;69.20;;;;;;4828452;29;20054;-76
2021/01/18 16:07:42;;;;;;;66.43;32.15;;;3.50;69.10;;;;;;4829371;29;20038;-76
2021/01/18 16:10:10;;;;;;;62.35;31.45;;;3.40;69.50;;;;;;4826589;29;20046;-75
2021/01/18 16:12:40;;;;;;;65.43;30.80;;;3.40;69.60;;;;;;4826762;29;20118;-76
2021/01/18 16:15:10;;;;;;;62.63;31.67;;;3.30;69.90;;;;;;4842462;29;20088;-75
2021/01/18 16:17:37;;;;;;;102.50;44.83;;;3.20;70.20;;;;;;4829312;29;20045;-76
2021/01/18 16:20:10;;;;;;;91.03;43.92;;;3.20;70.20;;;;;;4825857;29;20211;-77
2021/01/18 16:22:36;;;;;;;95.35;43.30;;;3.30;70.10;;;;;;4824376;29;20124;-76
2021/01/18 16:25:05;;;;;;;69.22;35.25;;;3.40;69.70;;;;;;4827423;29;20282;-76
2021/01/18 16:27:31;;;;;;;69.18;32.05;;;3.40;69.60;;;;;;4829328;29;20061;-75
2021/01/18 16:29:58;;;;;;;65.60;31.60;;;3.40;69.40;;;;;;4822592;29;20473;-75
2021/01/18 16:32:25;;;;;;;60.03;30.95;;;3.40;69.30;;;;;;4823293;29;20034;-75
2021/01/18 16:34:51;;;;;;;74.90;32.38;;;3.40;69.10;;;;;;4830259;29;20093;-75
2021/01/18 16:37:28;;;;;;;60.08;31.40;;;3.40;69.10;;;;;;4825651;29;20027;-75